Accueil
METAR-TAF:

METAR-TAF

Aéroports :

Albert, France

Aéroport Albert-Picardie

latitude: 49-58-21N, longitude: 002-41-29E, altitude: 111 m

Observation

Le bulletin a été fait il y a 21 minutes, à 08:30 UTC
Vent 5 kt de ouest, variant entre ouest/sud-ouest et nord-ouest
Température 18°C
Humidité 83%
Pression 1018 hPa
Visibilité 10 km ou plus
Nuages fragmentés à une hauteur de 900 ft

METAR: LFAQ 240830Z AUTO 28005KT 250V320 9999 BKN009 18/15 Q1018 BECMG NSC

Heure: 10:51 (08:51 UTC)

Prévision

Le bulletin a été fait il y a 3 heures et 51 minutes, à 05:00 UTC
Prévision valable du 24 à 06 UTC au 24 à 15 UTC
Vent 2 kt de direction variable
Visibilité 10 km ou plus
pas de nuages en-dessous de 1500 mètres et pas de cumulonimbus.
Temporairement
du 24 à 06 UTC au 24 à 08 UTC
Nuages fragmentés à une hauteur de 1300 ft

TAF: LFAQ 240500Z 2406/2415 VRB02KT CAVOK TEMPO 2406/2408 BKN013

Observations et prévisions météorologiques de plus de 4000 aéroports (messages METAR et TAF).

Les stations disponibles sont représentées par des disques jaunes et rouges sur la carte.

Passer la souris dessus pour voir le nom de la station.

Cliquer dessus pour voir les observations et prévisions météorologiques.

Pour changer de carte: cliquez sur les boutons verts avec une croix noire pour zoomer, sur le bouton vert avec un tiret pour effectuer un zoom arrière, ou sur les flèches vertes pour les cartes adjacentes.


METAR-TAF: